sensor_id;sensor_type;location;lat;lon;timestamp;P1;durP1;ratioP1;P2;durP2;ratioP2
19260;SDS011;9764;48.114;11.670;2023-03-01T00:01:35;2.25;;;1.83;;
19260;SDS011;9764;48.114;11.670;2023-03-01T00:04:03;2.45;;;2.17;;
19260;SDS011;9764;48.114;11.670;2023-03-01T00:06:32;2.83;;;2.20;;
19260;SDS011;9764;48.114;11.670;2023-03-01T00:09:00;2.85;;;2.15;;
19260;SDS011;9764;48.114;11.670;2023-03-01T00:11:29;2.10;;;1.90;;
19260;SDS011;9764;48.114;11.670;2023-03-01T00:13:59;2.78;;;2.20;;
19260;SDS011;9764;48.114;11.670;2023-03-01T00:16:30;2.83;;;2.47;;
19260;SDS011;9764;48.114;11.670;2023-03-01T00:19:01;2.42;;;2.10;;
19260;SDS011;9764;48.114;11.670;2023-03-01T00:21:29;2.83;;;2.20;;
19260;SDS011;9764;48.114;11.670;2023-03-01T00:23:58;2.22;;;2.03;;
19260;SDS011;9764;48.114;11.670;2023-03-01T00:26:26;2.72;;;2.50;;
19260;SDS011;9764;48.114;11.670;2023-03-01T00:28:56;2.50;;;2.30;;
19260;SDS011;9764;48.114;11.670;2023-03-01T00:31:26;2.60;;;2.40;;
19260;SDS011;9764;48.114;11.670;2023-03-01T00:33:57;2.40;;;2.20;;
19260;SDS011;9764;48.114;11.670;2023-03-01T00:36:28;2.72;;;2.30;;
19260;SDS011;9764;48.114;11.670;2023-03-01T00:38:58;2.65;;;1.95;;
19260;SDS011;9764;48.114;11.670;2023-03-01T00:41:27;2.28;;;2.00;;
19260;SDS011;9764;48.114;11.670;2023-03-01T00:43:55;2.78;;;2.30;;
19260;SDS011;9764;48.114;11.670;2023-03-01T00:46:25;3.22;;;2.67;;
19260;SDS011;9764;48.114;11.670;2023-03-01T00:48:54;2.40;;;2.05;;
19260;SDS011;9764;48.114;11.670;2023-03-01T00:51:25;3.00;;;2.70;;
19260;SDS011;9764;48.114;11.670;2023-03-01T00:53:56;2.80;;;2.20;;
19260;SDS011;9764;48.114;11.670;2023-03-01T00:56:27;2.13;;;2.00;;
19260;SDS011;9764;48.114;11.670;2023-03-01T00:58:57;2.45;;;2.20;;
19260;SDS011;9764;48.114;11.670;2023-03-01T01:01:26;2.72;;;2.30;;
19260;SDS011;9764;48.114;11.670;2023-03-01T01:03:59;3.25;;;2.65;;
19260;SDS011;9764;48.114;11.670;2023-03-01T01:06:30;2.95;;;2.30;;
19260;SDS011;9764;48.114;11.670;2023-03-01T01:09:01;2.65;;;2.08;;
19260;SDS011;9764;48.114;11.670;2023-03-01T01:11:31;2.90;;;2.50;;
19260;SDS011;9764;48.114;11.670;2023-03-01T01:14:01;2.50;;;2.13;;
19260;SDS011;9764;48.114;11.670;2023-03-01T01:16:30;2.88;;;2.38;;
19260;SDS011;9764;48.114;11.670;2023-03-01T01:19:00;2.22;;;2.03;;
19260;SDS011;9764;48.114;11.670;2023-03-01T01:21:29;2.90;;;2.30;;
19260;SDS011;9764;48.114;11.670;2023-03-01T01:23:57;2.60;;;2.40;;
19260;SDS011;9764;48.114;11.670;2023-03-01T01:26:27;2.65;;;2.33;;
19260;SDS011;9764;48.114;11.670;2023-03-01T01:28:57;2.67;;;2.35;;
19260;SDS011;9764;48.114;11.670;2023-03-01T01:31:26;3.58;;;2.67;;
19260;SDS011;9764;48.114;11.670;2023-03-01T01:33:56;2.90;;;2.20;;
19260;SDS011;9764;48.114;11.670;2023-03-01T01:36:26;3.75;;;3.03;;
19260;SDS011;9764;48.114;11.670;2023-03-01T01:38:55;2.72;;;2.42;;
19260;SDS011;9764;48.114;11.670;2023-03-01T01:41:24;3.60;;;2.58;;
19260;SDS011;9764;48.114;11.670;2023-03-01T01:46:41;2.85;;;2.55;;
19260;SDS011;9764;48.114;11.670;2023-03-01T01:49:15;2.60;;;2.30;;
19260;SDS011;9764;48.114;11.670;2023-03-01T01:51:51;3.55;;;2.58;;
19260;SDS011;9764;48.114;11.670;2023-03-01T01:54:25;2.60;;;2.30;;
19260;SDS011;9764;48.114;11.670;2023-03-01T01:56:59;3.20;;;2.50;;
19260;SDS011;9764;48.114;11.670;2023-03-01T01:59:30;3.33;;;2.50;;
19260;SDS011;9764;48.114;11.670;2023-03-01T02:02:01;2.92;;;2.42;;
19260;SDS011;9764;48.114;11.670;2023-03-01T02:04:31;3.22;;;2.60;;
19260;SDS011;9764;48.114;11.670;2023-03-01T02:07:03;3.13;;;2.50;;
19260;SDS011;9764;48.114;11.670;2023-03-01T02:09:35;3.28;;;2.42;;
19260;SDS011;9764;48.114;11.670;2023-03-01T02:12:03;2.42;;;2.22;;
19260;SDS011;9764;48.114;11.670;2023-03-01T02:14:33;3.47;;;2.28;;
19260;SDS011;9764;48.114;11.670;2023-03-01T02:17:01;2.65;;;2.33;;
19260;SDS011;9764;48.114;11.670;2023-03-01T02:19:32;3.28;;;2.70;;
19260;SDS011;9764;48.114;11.670;2023-03-01T02:22:18;3.40;;;2.70;;
19260;SDS011;9764;48.114;11.670;2023-03-01T02:24:54;2.95;;;2.38;;
19260;SDS011;9764;48.114;11.670;2023-03-01T02:27:37;2.80;;;2.30;;
19260;SDS011;9764;48.114;11.670;2023-03-01T02:30:12;3.95;;;2.67;;
19260;SDS011;9764;48.114;11.670;2023-03-01T02:32:40;2.85;;;2.42;;
19260;SDS011;9764;48.114;11.670;2023-03-01T02:35:09;2.85;;;2.28;;
19260;SDS011;9764;48.114;11.670;2023-03-01T02:37:41;2.75;;;2.42;;
19260;SDS011;9764;48.114;11.670;2023-03-01T02:40:11;2.70;;;2.50;;
19260;SDS011;9764;48.114;11.670;2023-03-01T02:42:46;2.97;;;2.60;;
19260;SDS011;9764;48.114;11.670;2023-03-01T02:45:18;2.72;;;2.30;;
19260;SDS011;9764;48.114;11.670;2023-03-01T02:47:47;3.33;;;2.58;;
19260;SDS011;9764;48.114;11.670;2023-03-01T02:50:19;3.03;;;2.72;;
19260;SDS011;9764;48.114;11.670;2023-03-01T02:53:01;3.05;;;2.60;;
19260;SDS011;9764;48.114;11.670;2023-03-01T02:55:38;2.95;;;2.30;;
19260;SDS011;9764;48.114;11.670;2023-03-01T02:58:07;2.58;;;2.33;;
19260;SDS011;9764;48.114;11.670;2023-03-01T03:00:40;2.55;;;2.28;;
19260;SDS011;9764;48.114;11.670;2023-03-01T03:03:12;3.00;;;2.53;;
19260;SDS011;9764;48.114;11.670;2023-03-01T03:05:42;3.10;;;2.78;;
19260;SDS011;9764;48.114;11.670;2023-03-01T03:08:11;2.85;;;2.40;;
19260;SDS011;9764;48.114;11.670;2023-03-01T03:10:40;2.65;;;2.30;;
19260;SDS011;9764;48.114;11.670;2023-03-01T03:13:10;3.85;;;2.60;;
19260;SDS011;9764;48.114;11.670;2023-03-01T03:15:43;2.88;;;2.40;;
19260;SDS011;9764;48.114;11.670;2023-03-01T03:18:11;2.72;;;2.40;;
19260;SDS011;9764;48.114;11.670;2023-03-01T03:20:42;3.03;;;2.70;;
19260;SDS011;9764;48.114;11.670;2023-03-01T03:23:12;3.00;;;2.70;;
19260;SDS011;9764;48.114;11.670;2023-03-01T03:25:41;2.63;;;2.42;;
19260;SDS011;9764;48.114;11.670;2023-03-01T03:28:09;3.13;;;2.60;;
19260;SDS011;9764;48.114;11.670;2023-03-01T03:30:38;3.33;;;2.70;;
19260;SDS011;9764;48.114;11.670;2023-03-01T03:33:10;3.28;;;2.58;;
19260;SDS011;9764;48.114;11.670;2023-03-01T03:35:41;2.78;;;2.40;;
19260;SDS011;9764;48.114;11.670;2023-03-01T03:38:11;4.05;;;2.60;;
19260;SDS011;9764;48.114;11.670;2023-03-01T03:40:43;2.75;;;2.33;;
19260;SDS011;9764;48.114;11.670;2023-03-01T03:43:14;3.10;;;2.65;;
19260;SDS011;9764;48.114;11.670;2023-03-01T03:45:43;2.83;;;2.45;;
19260;SDS011;9764;48.114;11.670;2023-03-01T03:48:14;3.72;;;2.80;;
19260;SDS011;9764;48.114;11.670;2023-03-01T03:50:47;2.33;;;2.13;;
19260;SDS011;9764;48.114;11.670;2023-03-01T03:53:15;2.90;;;2.50;;
19260;SDS011;9764;48.114;11.670;2023-03-01T03:55:44;2.65;;;2.30;;
19260;SDS011;9764;48.114;11.670;2023-03-01T03:58:16;3.53;;;2.47;;
19260;SDS011;9764;48.114;11.670;2023-03-01T04:00:47;4.95;;;2.63;;
19260;SDS011;9764;48.114;11.670;2023-03-01T04:03:19;3.80;;;2.80;;
19260;SDS011;9764;48.114;11.670;2023-03-01T04:05:50;2.97;;;2.67;;
19260;SDS011;9764;48.114;11.670;2023-03-01T04:08:19;3.10;;;2.50;;
19260;SDS011;9764;48.114;11.670;2023-03-01T04:10:48;4.47;;;2.90;;
19260;SDS011;9764;48.114;11.670;2023-03-01T04:13:18;3.05;;;2.30;;
19260;SDS011;9764;48.114;11.670;2023-03-01T04:15:48;4.35;;;3.00;;
19260;SDS011;9764;48.114;11.670;2023-03-01T04:18:18;3.88;;;3.10;;
19260;SDS011;9764;48.114;11.670;2023-03-01T04:20:48;5.82;;;2.80;;
19260;SDS011;9764;48.114;11.670;2023-03-01T04:23:19;4.25;;;3.20;;
19260;SDS011;9764;48.114;11.670;2023-03-01T04:25:48;5.97;;;3.20;;
19260;SDS011;9764;48.114;11.670;2023-03-01T04:28:22;5.15;;;3.35;;
19260;SDS011;9764;48.114;11.670;2023-03-01T04:30:51;5.72;;;3.63;;
19260;SDS011;9764;48.114;11.670;2023-03-01T04:33:22;6.15;;;3.13;;
19260;SDS011;9764;48.114;11.670;2023-03-01T04:35:51;4.57;;;2.88;;
19260;SDS011;9764;48.114;11.670;2023-03-01T04:38:19;6.32;;;3.88;;
19260;SDS011;9764;48.114;11.670;2023-03-01T04:40:48;6.50;;;3.13;;
19260;SDS011;9764;48.114;11.670;2023-03-01T04:43:16;6.68;;;3.60;;
19260;SDS011;9764;48.114;11.670;2023-03-01T04:45:45;7.60;;;3.75;;
19260;SDS011;9764;48.114;11.670;2023-03-01T04:48:13;7.30;;;3.53;;
19260;SDS011;9764;48.114;11.670;2023-03-01T04:50:42;7.45;;;3.90;;
19260;SDS011;9764;48.114;11.670;2023-03-01T04:53:11;6.55;;;3.17;;
19260;SDS011;9764;48.114;11.670;2023-03-01T04:55:39;7.97;;;3.92;;
19260;SDS011;9764;48.114;11.670;2023-03-01T04:58:07;6.13;;;3.95;;
19260;SDS011;9764;48.114;11.670;2023-03-01T05:00:35;8.02;;;4.35;;
19260;SDS011;9764;48.114;11.670;2023-03-01T05:03:04;6.22;;;3.92;;
19260;SDS011;9764;48.114;11.670;2023-03-01T05:05:33;5.38;;;3.47;;
19260;SDS011;9764;48.114;11.670;2023-03-01T05:08:07;7.50;;;3.70;;
19260;SDS011;9764;48.114;11.670;2023-03-01T05:10:35;8.05;;;3.90;;
19260;SDS011;9764;48.114;11.670;2023-03-01T05:13:05;8.75;;;4.00;;
19260;SDS011;9764;48.114;11.670;2023-03-01T05:15:33;5.07;;;3.50;;
19260;SDS011;9764;48.114;11.670;2023-03-01T05:18:03;7.25;;;3.47;;
19260;SDS011;9764;48.114;11.670;2023-03-01T05:20:37;7.38;;;4.03;;
19260;SDS011;9764;48.114;11.670;2023-03-01T05:23:07;6.22;;;4.10;;
19260;SDS011;9764;48.114;11.670;2023-03-01T05:25:35;6.97;;;3.45;;
19260;SDS011;9764;48.114;11.670;2023-03-01T05:28:07;7.30;;;4.18;;
19260;SDS011;9764;48.114;11.670;2023-03-01T05:30:39;6.15;;;3.72;;
19260;SDS011;9764;48.114;11.670;2023-03-01T05:33:08;8.32;;;3.83;;
19260;SDS011;9764;48.114;11.670;2023-03-01T05:35:40;7.47;;;3.85;;
19260;SDS011;9764;48.114;11.670;2023-03-01T05:38:10;5.72;;;3.72;;
19260;SDS011;9764;48.114;11.670;2023-03-01T05:40:40;7.43;;;3.53;;
19260;SDS011;9764;48.114;11.670;2023-03-01T05:43:09;6.00;;;3.75;;
19260;SDS011;9764;48.114;11.670;2023-03-01T05:45:37;5.20;;;3.70;;
19260;SDS011;9764;48.114;11.670;2023-03-01T05:48:07;7.40;;;3.78;;
19260;SDS011;9764;48.114;11.670;2023-03-01T05:50:38;6.90;;;4.07;;
19260;SDS011;9764;48.114;11.670;2023-03-01T05:53:09;8.27;;;4.07;;
19260;SDS011;9764;48.114;11.670;2023-03-01T05:55:40;7.38;;;4.00;;
19260;SDS011;9764;48.114;11.670;2023-03-01T05:58:10;8.23;;;3.80;;
19260;SDS011;9764;48.114;11.670;2023-03-01T06:00:41;5.63;;;3.80;;
19260;SDS011;9764;48.114;11.670;2023-03-01T06:03:11;7.32;;;3.72;;
19260;SDS011;9764;48.114;11.670;2023-03-01T06:05:40;6.20;;;3.90;;
19260;SDS011;9764;48.114;11.670;2023-03-01T06:08:10;5.43;;;3.40;;
19260;SDS011;9764;48.114;11.670;2023-03-01T06:10:39;5.78;;;3.70;;
19260;SDS011;9764;48.114;11.670;2023-03-01T06:13:08;6.35;;;3.75;;
19260;SDS011;9764;48.114;11.670;2023-03-01T06:15:36;6.15;;;3.58;;
19260;SDS011;9764;48.114;11.670;2023-03-01T06:18:05;5.32;;;3.50;;
19260;SDS011;9764;48.114;11.670;2023-03-01T06:20:33;5.47;;;3.58;;
19260;SDS011;9764;48.114;11.670;2023-03-01T06:23:02;6.20;;;3.85;;
19260;SDS011;9764;48.114;11.670;2023-03-01T06:25:31;5.90;;;3.47;;
19260;SDS011;9764;48.114;11.670;2023-03-01T06:28:00;5.63;;;3.63;;
19260;SDS011;9764;48.114;11.670;2023-03-01T06:30:28;4.93;;;3.45;;
19260;SDS011;9764;48.114;11.670;2023-03-01T06:32:56;6.28;;;3.72;;
19260;SDS011;9764;48.114;11.670;2023-03-01T06:35:27;5.20;;;3.45;;
19260;SDS011;9764;48.114;11.670;2023-03-01T06:37:58;5.57;;;3.75;;
19260;SDS011;9764;48.114;11.670;2023-03-01T06:40:27;5.18;;;3.28;;
19260;SDS011;9764;48.114;11.670;2023-03-01T06:42:56;6.07;;;3.88;;
19260;SDS011;9764;48.114;11.670;2023-03-01T06:45:25;5.22;;;3.47;;
19260;SDS011;9764;48.114;11.670;2023-03-01T06:48:00;5.13;;;3.53;;
19260;SDS011;9764;48.114;11.670;2023-03-01T06:50:29;5.53;;;3.58;;
19260;SDS011;9764;48.114;11.670;2023-03-01T06:52:58;5.63;;;3.50;;
19260;SDS011;9764;48.114;11.670;2023-03-01T06:55:26;5.93;;;3.40;;
19260;SDS011;9764;48.114;11.670;2023-03-01T06:57:54;5.50;;;3.63;;
19260;SDS011;9764;48.114;11.670;2023-03-01T07:00:24;6.32;;;3.72;;
19260;SDS011;9764;48.114;11.670;2023-03-01T07:02:54;5.35;;;3.50;;
19260;SDS011;9764;48.114;11.670;2023-03-01T07:05:22;6.22;;;3.67;;
19260;SDS011;9764;48.114;11.670;2023-03-01T07:07:51;5.13;;;3.13;;
19260;SDS011;9764;48.114;11.670;2023-03-01T07:10:22;6.03;;;3.70;;
19260;SDS011;9764;48.114;11.670;2023-03-01T07:12:50;6.63;;;3.60;;
19260;SDS011;9764;48.114;11.670;2023-03-01T07:15:22;4.43;;;3.50;;
19260;SDS011;9764;48.114;11.670;2023-03-01T07:17:51;5.47;;;3.53;;
19260;SDS011;9764;48.114;11.670;2023-03-01T07:20:20;6.47;;;3.42;;
19260;SDS011;9764;48.114;11.670;2023-03-01T07:22:51;15.88;;;4.35;;
19260;SDS011;9764;48.114;11.670;2023-03-01T07:25:19;17.83;;;4.63;;
19260;SDS011;9764;48.114;11.670;2023-03-01T07:27:51;16.13;;;4.30;;
19260;SDS011;9764;48.114;11.670;2023-03-01T07:30:19;11.48;;;3.95;;
19260;SDS011;9764;48.114;11.670;2023-03-01T07:32:49;11.23;;;3.53;;
19260;SDS011;9764;48.114;11.670;2023-03-01T07:35:21;12.48;;;3.97;;
19260;SDS011;9764;48.114;11.670;2023-03-01T07:37:49;11.20;;;3.70;;
19260;SDS011;9764;48.114;11.670;2023-03-01T07:40:17;10.18;;;3.58;;
19260;SDS011;9764;48.114;11.670;2023-03-01T07:42:46;9.38;;;3.33;;
19260;SDS011;9764;48.114;11.670;2023-03-01T07:45:15;5.28;;;3.25;;
19260;SDS011;9764;48.114;11.670;2023-03-01T07:47:43;10.85;;;4.20;;
19260;SDS011;9764;48.114;11.670;2023-03-01T07:50:13;5.75;;;3.33;;
19260;SDS011;9764;48.114;11.670;2023-03-01T07:52:41;4.65;;;3.25;;
19260;SDS011;9764;48.114;11.670;2023-03-01T07:55:12;5.47;;;3.60;;
19260;SDS011;9764;48.114;11.670;2023-03-01T07:57:40;6.82;;;3.40;;
19260;SDS011;9764;48.114;11.670;2023-03-01T08:00:10;6.82;;;3.47;;
19260;SDS011;9764;48.114;11.670;2023-03-01T08:02:39;6.15;;;3.30;;
19260;SDS011;9764;48.114;11.670;2023-03-01T08:05:08;5.55;;;3.30;;
19260;SDS011;9764;48.114;11.670;2023-03-01T08:07:38;5.18;;;3.67;;
19260;SDS011;9764;48.114;11.670;2023-03-01T08:10:08;7.38;;;3.30;;
19260;SDS011;9764;48.114;11.670;2023-03-01T08:12:38;5.93;;;3.38;;
19260;SDS011;9764;48.114;11.670;2023-03-01T08:15:07;6.07;;;2.97;;
19260;SDS011;9764;48.114;11.670;2023-03-01T08:17:36;5.47;;;3.28;;
19260;SDS011;9764;48.114;11.670;2023-03-01T08:20:05;5.97;;;3.58;;
19260;SDS011;9764;48.114;11.670;2023-03-01T08:22:34;6.78;;;3.05;;
19260;SDS011;9764;48.114;11.670;2023-03-01T08:25:04;5.88;;;3.55;;
19260;SDS011;9764;48.114;11.670;2023-03-01T08:27:33;6.90;;;3.53;;
19260;SDS011;9764;48.114;11.670;2023-03-01T08:30:02;8.07;;;3.03;;
19260;SDS011;9764;48.114;11.670;2023-03-01T08:32:34;5.35;;;3.20;;
19260;SDS011;9764;48.114;11.670;2023-03-01T08:35:04;5.97;;;3.28;;
19260;SDS011;9764;48.114;11.670;2023-03-01T08:37:32;8.95;;;3.50;;
19260;SDS011;9764;48.114;11.670;2023-03-01T08:40:01;3.97;;;2.97;;
19260;SDS011;9764;48.114;11.670;2023-03-01T08:42:34;4.15;;;3.13;;
19260;SDS011;9764;48.114;11.670;2023-03-01T08:45:04;5.15;;;3.00;;
19260;SDS011;9764;48.114;11.670;2023-03-01T08:47:32;5.95;;;3.25;;
19260;SDS011;9764;48.114;11.670;2023-03-01T08:50:01;4.55;;;3.30;;
19260;SDS011;9764;48.114;11.670;2023-03-01T08:52:31;5.00;;;3.13;;
19260;SDS011;9764;48.114;11.670;2023-03-01T08:55:00;4.18;;;2.85;;
19260;SDS011;9764;48.114;11.670;2023-03-01T08:57:29;5.95;;;3.58;;
19260;SDS011;9764;48.114;11.670;2023-03-01T08:59:58;5.05;;;2.80;;
19260;SDS011;9764;48.114;11.670;2023-03-01T09:02:27;29.20;;;4.85;;
19260;SDS011;9764;48.114;11.670;2023-03-01T09:04:55;9.82;;;3.63;;
19260;SDS011;9764;48.114;11.670;2023-03-01T09:07:24;8.02;;;3.08;;
19260;SDS011;9764;48.114;11.670;2023-03-01T09:09:54;8.93;;;3.70;;
19260;SDS011;9764;48.114;11.670;2023-03-01T09:12:23;9.65;;;4.00;;
19260;SDS011;9764;48.114;11.670;2023-03-01T09:14:52;6.77;;;3.50;;
19260;SDS011;9764;48.114;11.670;2023-03-01T09:17:21;6.60;;;3.38;;
19260;SDS011;9764;48.114;11.670;2023-03-01T09:19:50;9.43;;;3.30;;
19260;SDS011;9764;48.114;11.670;2023-03-01T09:22:18;6.55;;;3.30;;
19260;SDS011;9764;48.114;11.670;2023-03-01T09:24:46;4.57;;;3.03;;
19260;SDS011;9764;48.114;11.670;2023-03-01T09:27:14;4.57;;;3.00;;
19260;SDS011;9764;48.114;11.670;2023-03-01T09:29:45;7.43;;;3.50;;
19260;SDS011;9764;48.114;11.670;2023-03-01T09:32:13;4.82;;;2.97;;
19260;SDS011;9764;48.114;11.670;2023-03-01T09:34:43;5.63;;;2.97;;
19260;SDS011;9764;48.114;11.670;2023-03-01T09:37:28;5.68;;;3.22;;
19260;SDS011;9764;48.114;11.670;2023-03-01T09:39:56;6.45;;;3.40;;
19260;SDS011;9764;48.114;11.670;2023-03-01T09:42:26;7.03;;;3.40;;
19260;SDS011;9764;48.114;11.670;2023-03-01T09:44:58;6.03;;;3.20;;
19260;SDS011;9764;48.114;11.670;2023-03-01T09:47:29;3.83;;;3.35;;
19260;SDS011;9764;48.114;11.670;2023-03-01T09:50:04;4.75;;;3.30;;
19260;SDS011;9764;48.114;11.670;2023-03-01T09:52:38;4.68;;;3.50;;
19260;SDS011;9764;48.114;11.670;2023-03-01T09:55:11;5.20;;;3.40;;
19260;SDS011;9764;48.114;11.670;2023-03-01T09:57:43;4.05;;;3.10;;
19260;SDS011;9764;48.114;11.670;2023-03-01T10:00:18;6.80;;;3.25;;
19260;SDS011;9764;48.114;11.670;2023-03-01T10:02:58;5.13;;;2.85;;
19260;SDS011;9764;48.114;11.670;2023-03-01T10:05:36;4.40;;;3.22;;
19260;SDS011;9764;48.114;11.670;2023-03-01T10:08:19;5.07;;;2.90;;
19260;SDS011;9764;48.114;11.670;2023-03-01T10:10:56;6.97;;;3.25;;
19260;SDS011;9764;48.114;11.670;2023-03-01T10:13:26;8.85;;;3.35;;
19260;SDS011;9764;48.114;11.670;2023-03-01T10:16:01;6.95;;;3.15;;
19260;SDS011;9764;48.114;11.670;2023-03-01T10:18:34;4.80;;;3.10;;
19260;SDS011;9764;48.114;11.670;2023-03-01T10:21:09;4.63;;;3.58;;
19260;SDS011;9764;48.114;11.670;2023-03-01T10:23:43;4.45;;;2.90;;
19260;SDS011;9764;48.114;11.670;2023-03-01T10:26:21;4.90;;;3.05;;
19260;SDS011;9764;48.114;11.670;2023-03-01T10:28:59;3.15;;;2.80;;
19260;SDS011;9764;48.114;11.670;2023-03-01T10:31:34;4.78;;;3.00;;
19260;SDS011;9764;48.114;11.670;2023-03-01T10:34:11;4.68;;;2.75;;
19260;SDS011;9764;48.114;11.670;2023-03-01T10:36:43;3.58;;;3.15;;
19260;SDS011;9764;48.114;11.670;2023-03-01T10:39:16;5.15;;;3.00;;
19260;SDS011;9764;48.114;11.670;2023-03-01T10:41:53;3.63;;;2.78;;
19260;SDS011;9764;48.114;11.670;2023-03-01T10:44:40;6.63;;;3.00;;
19260;SDS011;9764;48.114;11.670;2023-03-01T10:47:18;3.85;;;3.15;;
19260;SDS011;9764;48.114;11.670;2023-03-01T10:49:52;7.88;;;3.70;;
19260;SDS011;9764;48.114;11.670;2023-03-01T10:52:24;3.60;;;2.88;;
19260;SDS011;9764;48.114;11.670;2023-03-01T10:54:58;5.93;;;3.25;;
19260;SDS011;9764;48.114;11.670;2023-03-01T10:57:36;5.97;;;3.25;;
19260;SDS011;9764;48.114;11.670;2023-03-01T11:00:22;3.45;;;2.70;;
19260;SDS011;9764;48.114;11.670;2023-03-01T11:03:01;7.07;;;2.90;;
19260;SDS011;9764;48.114;11.670;2023-03-01T11:05:37;7.18;;;2.92;;
19260;SDS011;9764;48.114;11.670;2023-03-01T11:08:30;6.57;;;3.15;;
19260;SDS011;9764;48.114;11.670;2023-03-01T11:11:04;5.78;;;3.25;;
19260;SDS011;9764;48.114;11.670;2023-03-01T11:13:52;3.10;;;2.55;;
19260;SDS011;9764;48.114;11.670;2023-03-01T11:16:23;5.68;;;2.83;;
19260;SDS011;9764;48.114;11.670;2023-03-01T11:18:57;5.90;;;3.20;;
19260;SDS011;9764;48.114;11.670;2023-03-01T11:21:28;6.32;;;3.42;;
19260;SDS011;9764;48.114;11.670;2023-03-01T11:24:01;4.68;;;3.05;;
19260;SDS011;9764;48.114;11.670;2023-03-01T11:26:31;3.75;;;3.22;;
19260;SDS011;9764;48.114;11.670;2023-03-01T11:29:07;6.22;;;3.10;;
19260;SDS011;9764;48.114;11.670;2023-03-01T11:31:43;4.65;;;3.10;;
19260;SDS011;9764;48.114;11.670;2023-03-01T11:34:24;6.55;;;3.30;;
19260;SDS011;9764;48.114;11.670;2023-03-01T11:37:03;6.10;;;3.03;;
19260;SDS011;9764;48.114;11.670;2023-03-01T11:39:42;5.10;;;2.90;;
19260;SDS011;9764;48.114;11.670;2023-03-01T11:42:15;7.55;;;3.20;;
19260;SDS011;9764;48.114;11.670;2023-03-01T11:44:47;6.82;;;2.95;;
19260;SDS011;9764;48.114;11.670;2023-03-01T11:47:26;5.45;;;2.90;;
19260;SDS011;9764;48.114;11.670;2023-03-01T11:50:12;3.80;;;2.92;;
19260;SDS011;9764;48.114;11.670;2023-03-01T11:52:50;4.68;;;3.20;;
19260;SDS011;9764;48.114;11.670;2023-03-01T11:55:35;4.93;;;2.85;;
19260;SDS011;9764;48.114;11.670;2023-03-01T11:58:14;4.18;;;2.90;;
19260;SDS011;9764;48.114;11.670;2023-03-01T12:01:08;4.72;;;3.40;;
19260;SDS011;9764;48.114;11.670;2023-03-01T12:07:00;4.13;;;3.00;;
19260;SDS011;9764;48.114;11.670;2023-03-01T12:09:37;6.50;;;2.95;;
19260;SDS011;9764;48.114;11.670;2023-03-01T12:12:28;3.00;;;2.60;;
19260;SDS011;9764;48.114;11.670;2023-03-01T12:18:24;5.40;;;2.80;;
19260;SDS011;9764;48.114;11.670;2023-03-01T12:21:14;3.92;;;3.00;;
19260;SDS011;9764;48.114;11.670;2023-03-01T12:24:00;4.57;;;2.88;;
19260;SDS011;9764;48.114;11.670;2023-03-01T12:26:56;3.70;;;2.88;;
19260;SDS011;9764;48.114;11.670;2023-03-01T12:29:38;3.92;;;2.70;;
19260;SDS011;9764;48.114;11.670;2023-03-01T12:32:18;4.30;;;3.10;;
19260;SDS011;9764;48.114;11.670;2023-03-01T12:35:08;5.85;;;2.72;;
19260;SDS011;9764;48.114;11.670;2023-03-01T12:38:06;3.75;;;3.00;;
19260;SDS011;9764;48.114;11.670;2023-03-01T12:40:46;5.18;;;2.88;;
19260;SDS011;9764;48.114;11.670;2023-03-01T12:43:36;3.33;;;2.95;;
19260;SDS011;9764;48.114;11.670;2023-03-01T12:46:20;3.10;;;2.80;;
19260;SDS011;9764;48.114;11.670;2023-03-01T12:48:59;3.38;;;3.08;;
19260;SDS011;9764;48.114;11.670;2023-03-01T12:51:35;3.13;;;2.67;;
19260;SDS011;9764;48.114;11.670;2023-03-01T12:54:07;3.58;;;2.97;;
19260;SDS011;9764;48.114;11.670;2023-03-01T12:56:42;3.17;;;2.63;;
19260;SDS011;9764;48.114;11.670;2023-03-01T12:59:19;4.13;;;3.50;;
19260;SDS011;9764;48.114;11.670;2023-03-01T13:01:56;5.22;;;2.90;;
19260;SDS011;9764;48.114;11.670;2023-03-01T13:04:33;3.92;;;2.90;;
19260;SDS011;9764;48.114;11.670;2023-03-01T13:07:12;3.88;;;2.88;;
19260;SDS011;9764;48.114;11.670;2023-03-01T13:09:49;4.15;;;3.00;;
19260;SDS011;9764;48.114;11.670;2023-03-01T13:12:42;3.33;;;2.85;;
19260;SDS011;9764;48.114;11.670;2023-03-01T13:15:25;4.32;;;2.90;;
19260;SDS011;9764;48.114;11.670;2023-03-01T13:17:57;5.63;;;3.13;;
19260;SDS011;9764;48.114;11.670;2023-03-01T13:20:27;3.08;;;2.53;;
19260;SDS011;9764;48.114;11.670;2023-03-01T13:23:01;2.90;;;2.60;;
19260;SDS011;9764;48.114;11.670;2023-03-01T13:25:32;4.05;;;3.00;;
19260;SDS011;9764;48.114;11.670;2023-03-01T13:31:10;3.35;;;2.67;;
19260;SDS011;9764;48.114;11.670;2023-03-01T13:34:02;3.13;;;2.83;;
19260;SDS011;9764;48.114;11.670;2023-03-01T13:36:46;3.83;;;2.50;;
19260;SDS011;9764;48.114;11.670;2023-03-01T13:39:29;4.85;;;2.70;;
19260;SDS011;9764;48.114;11.670;2023-03-01T13:42:02;3.67;;;2.80;;
19260;SDS011;9764;48.114;11.670;2023-03-01T13:44:32;4.00;;;2.85;;
19260;SDS011;9764;48.114;11.670;2023-03-01T13:47:05;4.82;;;2.50;;
19260;SDS011;9764;48.114;11.670;2023-03-01T13:49:46;5.13;;;2.75;;
19260;SDS011;9764;48.114;11.670;2023-03-01T13:52:37;2.97;;;2.65;;
19260;SDS011;9764;48.114;11.670;2023-03-01T13:55:14;4.20;;;3.05;;
19260;SDS011;9764;48.114;11.670;2023-03-01T13:57:46;4.13;;;3.10;;
19260;SDS011;9764;48.114;11.670;2023-03-01T14:00:34;6.40;;;2.90;;
19260;SDS011;9764;48.114;11.670;2023-03-01T14:03:05;5.05;;;2.80;;
19260;SDS011;9764;48.114;11.670;2023-03-01T14:05:40;4.28;;;2.53;;
19260;SDS011;9764;48.114;11.670;2023-03-01T14:08:21;10.20;;;3.38;;
19260;SDS011;9764;48.114;11.670;2023-03-01T14:10:54;4.78;;;2.55;;
19260;SDS011;9764;48.114;11.670;2023-03-01T14:13:46;5.15;;;2.80;;
19260;SDS011;9764;48.114;11.670;2023-03-01T14:16:27;10.85;;;2.92;;
19260;SDS011;9764;48.114;11.670;2023-03-01T14:19:05;5.13;;;2.80;;
19260;SDS011;9764;48.114;11.670;2023-03-01T14:21:59;4.63;;;2.75;;
19260;SDS011;9764;48.114;11.670;2023-03-01T14:24:38;6.22;;;2.88;;
19260;SDS011;9764;48.114;11.670;2023-03-01T14:27:12;6.13;;;2.60;;
19260;SDS011;9764;48.114;11.670;2023-03-01T14:29:41;6.97;;;2.97;;
19260;SDS011;9764;48.114;11.670;2023-03-01T14:32:10;7.72;;;3.42;;
19260;SDS011;9764;48.114;11.670;2023-03-01T14:34:46;5.95;;;3.25;;
19260;SDS011;9764;48.114;11.670;2023-03-01T14:37:19;4.57;;;2.97;;
19260;SDS011;9764;48.114;11.670;2023-03-01T14:39:49;5.13;;;3.25;;
19260;SDS011;9764;48.114;11.670;2023-03-01T14:42:19;5.35;;;3.22;;
19260;SDS011;9764;48.114;11.670;2023-03-01T14:44:50;3.90;;;2.92;;
19260;SDS011;9764;48.114;11.670;2023-03-01T14:47:23;5.00;;;2.85;;
19260;SDS011;9764;48.114;11.670;2023-03-01T14:49:57;8.10;;;3.60;;
19260;SDS011;9764;48.114;11.670;2023-03-01T14:52:33;4.22;;;2.90;;
19260;SDS011;9764;48.114;11.670;2023-03-01T14:55:04;5.57;;;3.00;;
19260;SDS011;9764;48.114;11.670;2023-03-01T14:57:35;6.10;;;3.08;;
19260;SDS011;9764;48.114;11.670;2023-03-01T15:00:03;4.75;;;3.10;;
19260;SDS011;9764;48.114;11.670;2023-03-01T15:02:34;4.80;;;3.72;;
19260;SDS011;9764;48.114;11.670;2023-03-01T15:05:06;6.55;;;3.25;;
19260;SDS011;9764;48.114;11.670;2023-03-01T15:07:38;5.80;;;3.40;;
19260;SDS011;9764;48.114;11.670;2023-03-01T15:10:17;7.85;;;3.90;;
19260;SDS011;9764;48.114;11.670;2023-03-01T15:12:49;8.32;;;3.50;;
19260;SDS011;9764;48.114;11.670;2023-03-01T15:15:20;9.18;;;3.60;;
19260;SDS011;9764;48.114;11.670;2023-03-01T15:17:51;6.65;;;3.38;;
19260;SDS011;9764;48.114;11.670;2023-03-01T15:20:23;9.38;;;3.53;;
19260;SDS011;9764;48.114;11.670;2023-03-01T15:22:55;5.65;;;3.40;;
19260;SDS011;9764;48.114;11.670;2023-03-01T15:25:25;9.13;;;3.88;;
19260;SDS011;9764;48.114;11.670;2023-03-01T15:27:55;6.00;;;3.50;;
19260;SDS011;9764;48.114;11.670;2023-03-01T15:30:26;5.43;;;3.67;;
19260;SDS011;9764;48.114;11.670;2023-03-01T15:33:17;12.00;;;3.95;;